sensor_id;sensor_type;location;lat;lon;timestamp;P1;durP1;ratioP1;P2;durP2;ratioP2
76540;SDS011;65385;55.772;37.658;2023-05-07T19:59:09;9.15;;;4.43;;
76540;SDS011;65385;55.772;37.658;2023-05-07T20:00:10;11.43;;;4.80;;
76540;SDS011;65385;55.772;37.658;2023-05-07T20:01:13;10.88;;;5.03;;
76540;SDS011;65385;55.772;37.658;2023-05-07T20:02:14;9.68;;;5.35;;
76540;SDS011;65385;55.772;37.658;2023-05-07T20:03:15;10.98;;;5.32;;
76540;SDS011;65385;55.772;37.658;2023-05-07T20:04:18;13.55;;;5.70;;
76540;SDS011;65385;55.772;37.658;2023-05-07T20:05:18;11.32;;;4.88;;
76540;SDS011;65385;55.772;37.658;2023-05-07T20:06:20;11.13;;;4.53;;
76540;SDS011;65385;55.772;37.658;2023-05-07T20:07:22;10.20;;;5.13;;
76540;SDS011;65385;55.772;37.658;2023-05-07T20:08:23;8.95;;;4.90;;
76540;SDS011;65385;55.772;37.658;2023-05-07T20:09:23;14.15;;;5.85;;
76540;SDS011;65385;55.772;37.658;2023-05-07T20:10:24;10.68;;;4.63;;
76540;SDS011;65385;55.772;37.658;2023-05-07T20:11:25;12.73;;;4.82;;
76540;SDS011;65385;55.772;37.658;2023-05-07T20:12:26;11.57;;;5.18;;
76540;SDS011;65385;55.772;37.658;2023-05-07T20:13:26;8.43;;;4.25;;
76540;SDS011;65385;55.772;37.658;2023-05-07T20:14:27;9.68;;;4.50;;
76540;SDS011;65385;55.772;37.658;2023-05-07T20:15:28;7.47;;;4.40;;
76540;SDS011;65385;55.772;37.658;2023-05-07T20:16:29;10.88;;;4.70;;
76540;SDS011;65385;55.772;37.658;2023-05-07T20:17:29;9.15;;;4.57;;
76540;SDS011;65385;55.772;37.658;2023-05-07T20:18:30;10.43;;;4.53;;
76540;SDS011;65385;55.772;37.658;2023-05-07T20:19:30;8.25;;;5.28;;
76540;SDS011;65385;55.772;37.658;2023-05-07T20:20:31;5.35;;;3.53;;
76540;SDS011;65385;55.772;37.658;2023-05-07T20:21:32;11.32;;;3.92;;
76540;SDS011;65385;55.772;37.658;2023-05-07T20:22:33;6.72;;;4.05;;
76540;SDS011;65385;55.772;37.658;2023-05-07T20:23:33;10.15;;;4.20;;
76540;SDS011;65385;55.772;37.658;2023-05-07T20:24:37;6.88;;;4.30;;
76540;SDS011;65385;55.772;37.658;2023-05-07T20:25:41;7.32;;;4.18;;
76540;SDS011;65385;55.772;37.658;2023-05-07T20:26:42;8.85;;;3.90;;
76540;SDS011;65385;55.772;37.658;2023-05-07T20:27:43;9.15;;;4.18;;
76540;SDS011;65385;55.772;37.658;2023-05-07T20:28:44;6.53;;;4.45;;
76540;SDS011;65385;55.772;37.658;2023-05-07T20:29:45;8.23;;;3.97;;
76540;SDS011;65385;55.772;37.658;2023-05-07T20:30:45;7.22;;;4.20;;
76540;SDS011;65385;55.772;37.658;2023-05-07T20:31:46;7.82;;;3.92;;
76540;SDS011;65385;55.772;37.658;2023-05-07T20:32:47;8.40;;;3.83;;
76540;SDS011;65385;55.772;37.658;2023-05-07T20:33:47;7.28;;;3.63;;
76540;SDS011;65385;55.772;37.658;2023-05-07T20:34:48;9.27;;;3.67;;
76540;SDS011;65385;55.772;37.658;2023-05-07T20:35:48;8.20;;;3.75;;
76540;SDS011;65385;55.772;37.658;2023-05-07T20:36:49;7.95;;;4.40;;
76540;SDS011;65385;55.772;37.658;2023-05-07T20:37:50;5.20;;;3.50;;
76540;SDS011;65385;55.772;37.658;2023-05-07T20:38:51;8.25;;;3.70;;
76540;SDS011;65385;55.772;37.658;2023-05-07T20:39:51;8.13;;;3.92;;
76540;SDS011;65385;55.772;37.658;2023-05-07T20:40:52;7.03;;;3.30;;
76540;SDS011;65385;55.772;37.658;2023-05-07T20:41:53;9.00;;;3.88;;
76540;SDS011;65385;55.772;37.658;2023-05-07T20:42:53;7.22;;;4.20;;
76540;SDS011;65385;55.772;37.658;2023-05-07T20:43:54;11.32;;;3.30;;
76540;SDS011;65385;55.772;37.658;2023-05-07T20:44:56;7.22;;;3.70;;
76540;SDS011;65385;55.772;37.658;2023-05-07T20:45:57;9.38;;;3.78;;
76540;SDS011;65385;55.772;37.658;2023-05-07T20:47:06;7.53;;;3.75;;
76540;SDS011;65385;55.772;37.658;2023-05-07T20:48:07;5.20;;;3.55;;
76540;SDS011;65385;55.772;37.658;2023-05-07T20:49:08;6.07;;;3.50;;
76540;SDS011;65385;55.772;37.658;2023-05-07T20:50:08;6.10;;;3.28;;
76540;SDS011;65385;55.772;37.658;2023-05-07T20:51:09;7.28;;;3.60;;
76540;SDS011;65385;55.772;37.658;2023-05-07T20:52:12;5.60;;;3.30;;
76540;SDS011;65385;55.772;37.658;2023-05-07T20:53:13;8.05;;;3.35;;
76540;SDS011;65385;55.772;37.658;2023-05-07T20:54:14;6.78;;;3.88;;
76540;SDS011;65385;55.772;37.658;2023-05-07T20:55:14;8.13;;;3.80;;
76540;SDS011;65385;55.772;37.658;2023-05-07T20:56:15;5.95;;;3.47;;
76540;SDS011;65385;55.772;37.658;2023-05-07T20:57:16;6.88;;;3.80;;
76540;SDS011;65385;55.772;37.658;2023-05-07T20:58:18;6.70;;;3.60;;
76540;SDS011;65385;55.772;37.658;2023-05-07T20:59:19;7.78;;;4.07;;
76540;SDS011;65385;55.772;37.658;2023-05-07T21:00:20;9.60;;;4.35;;
76540;SDS011;65385;55.772;37.658;2023-05-07T21:01:21;10.95;;;3.47;;
76540;SDS011;65385;55.772;37.658;2023-05-07T21:02:21;6.20;;;3.40;;
76540;SDS011;65385;55.772;37.658;2023-05-07T21:03:22;9.50;;;3.47;;
76540;SDS011;65385;55.772;37.658;2023-05-07T21:04:23;6.93;;;3.65;;
76540;SDS011;65385;55.772;37.658;2023-05-07T21:05:23;8.02;;;4.05;;
76540;SDS011;65385;55.772;37.658;2023-05-07T21:06:24;8.90;;;3.75;;
76540;SDS011;65385;55.772;37.658;2023-05-07T21:07:25;10.23;;;3.53;;
76540;SDS011;65385;55.772;37.658;2023-05-07T21:08:26;10.60;;;3.50;;
76540;SDS011;65385;55.772;37.658;2023-05-07T21:09:27;8.05;;;3.80;;
76540;SDS011;65385;55.772;37.658;2023-05-07T21:10:28;6.65;;;3.53;;
76540;SDS011;65385;55.772;37.658;2023-05-07T21:11:28;6.40;;;3.70;;
76540;SDS011;65385;55.772;37.658;2023-05-07T21:12:29;9.73;;;4.22;;
76540;SDS011;65385;55.772;37.658;2023-05-07T21:13:30;8.95;;;3.42;;
76540;SDS011;65385;55.772;37.658;2023-05-07T21:14:30;7.63;;;3.88;;
76540;SDS011;65385;55.772;37.658;2023-05-07T21:15:31;8.98;;;4.00;;
76540;SDS011;65385;55.772;37.658;2023-05-07T21:16:32;9.55;;;4.10;;
76540;SDS011;65385;55.772;37.658;2023-05-07T21:17:32;11.80;;;3.80;;
76540;SDS011;65385;55.772;37.658;2023-05-07T21:18:34;12.77;;;4.07;;
76540;SDS011;65385;55.772;37.658;2023-05-07T21:19:36;7.35;;;4.20;;
76540;SDS011;65385;55.772;37.658;2023-05-07T21:20:36;7.63;;;3.83;;
76540;SDS011;65385;55.772;37.658;2023-05-07T21:21:37;5.90;;;3.92;;
76540;SDS011;65385;55.772;37.658;2023-05-07T21:22:38;9.23;;;3.72;;
76540;SDS011;65385;55.772;37.658;2023-05-07T21:23:38;8.23;;;3.80;;
76540;SDS011;65385;55.772;37.658;2023-05-07T21:24:39;7.40;;;3.70;;
76540;SDS011;65385;55.772;37.658;2023-05-07T21:25:40;6.75;;;3.80;;
76540;SDS011;65385;55.772;37.658;2023-05-07T21:26:41;11.05;;;4.57;;
76540;SDS011;65385;55.772;37.658;2023-05-07T21:27:42;8.05;;;4.50;;
76540;SDS011;65385;55.772;37.658;2023-05-07T21:28:42;7.13;;;3.80;;
76540;SDS011;65385;55.772;37.658;2023-05-07T21:29:43;5.78;;;4.10;;
76540;SDS011;65385;55.772;37.658;2023-05-07T21:30:44;7.47;;;3.78;;
76540;SDS011;65385;55.772;37.658;2023-05-07T21:31:44;10.57;;;3.83;;
76540;SDS011;65385;55.772;37.658;2023-05-07T21:32:45;7.45;;;3.65;;
76540;SDS011;65385;55.772;37.658;2023-05-07T21:33:46;9.27;;;4.20;;
76540;SDS011;65385;55.772;37.658;2023-05-07T21:34:46;10.48;;;4.22;;
76540;SDS011;65385;55.772;37.658;2023-05-07T21:35:47;6.47;;;3.50;;
76540;SDS011;65385;55.772;37.658;2023-05-07T21:36:48;7.10;;;3.67;;
76540;SDS011;65385;55.772;37.658;2023-05-07T21:37:49;8.68;;;3.88;;
76540;SDS011;65385;55.772;37.658;2023-05-07T21:38:49;8.50;;;4.13;;
76540;SDS011;65385;55.772;37.658;2023-05-07T21:39:51;8.57;;;3.47;;
76540;SDS011;65385;55.772;37.658;2023-05-07T21:40:52;9.60;;;4.25;;
76540;SDS011;65385;55.772;37.658;2023-05-07T21:41:53;8.90;;;4.68;;
76540;SDS011;65385;55.772;37.658;2023-05-07T21:42:53;11.93;;;5.00;;
76540;SDS011;65385;55.772;37.658;2023-05-07T21:43:54;6.72;;;3.70;;
76540;SDS011;65385;55.772;37.658;2023-05-07T21:44:55;8.95;;;3.88;;
76540;SDS011;65385;55.772;37.658;2023-05-07T21:45:56;9.98;;;4.00;;
76540;SDS011;65385;55.772;37.658;2023-05-07T21:46:58;9.75;;;4.88;;
76540;SDS011;65385;55.772;37.658;2023-05-07T21:47:59;8.93;;;4.07;;
76540;SDS011;65385;55.772;37.658;2023-05-07T21:48:59;8.18;;;4.97;;
76540;SDS011;65385;55.772;37.658;2023-05-07T21:50:00;9.20;;;4.03;;
76540;SDS011;65385;55.772;37.658;2023-05-07T21:51:02;8.73;;;4.35;;
76540;SDS011;65385;55.772;37.658;2023-05-07T21:52:05;9.85;;;4.00;;
76540;SDS011;65385;55.772;37.658;2023-05-07T21:53:10;7.65;;;4.57;;
76540;SDS011;65385;55.772;37.658;2023-05-07T21:54:11;8.02;;;4.47;;
76540;SDS011;65385;55.772;37.658;2023-05-07T21:55:12;7.53;;;4.30;;
76540;SDS011;65385;55.772;37.658;2023-05-07T21:56:12;8.27;;;4.68;;
76540;SDS011;65385;55.772;37.658;2023-05-07T21:57:13;8.18;;;4.65;;
76540;SDS011;65385;55.772;37.658;2023-05-07T21:58:14;9.30;;;4.68;;
76540;SDS011;65385;55.772;37.658;2023-05-07T21:59:14;8.77;;;4.18;;
76540;SDS011;65385;55.772;37.658;2023-05-07T22:00:15;7.70;;;4.05;;
76540;SDS011;65385;55.772;37.658;2023-05-07T22:01:16;8.80;;;4.65;;
76540;SDS011;65385;55.772;37.658;2023-05-07T22:02:16;10.23;;;5.03;;
76540;SDS011;65385;55.772;37.658;2023-05-07T22:03:17;7.63;;;3.78;;
76540;SDS011;65385;55.772;37.658;2023-05-07T22:04:18;7.18;;;4.10;;
76540;SDS011;65385;55.772;37.658;2023-05-07T22:05:19;7.90;;;4.85;;
76540;SDS011;65385;55.772;37.658;2023-05-07T22:06:20;7.53;;;4.95;;
76540;SDS011;65385;55.772;37.658;2023-05-07T22:07:21;8.18;;;3.85;;
76540;SDS011;65385;55.772;37.658;2023-05-07T22:08:22;7.95;;;3.97;;
76540;SDS011;65385;55.772;37.658;2023-05-07T22:09:23;9.82;;;4.10;;
76540;SDS011;65385;55.772;37.658;2023-05-07T22:10:23;13.70;;;4.22;;
76540;SDS011;65385;55.772;37.658;2023-05-07T22:11:24;8.13;;;4.38;;
76540;SDS011;65385;55.772;37.658;2023-05-07T22:12:25;9.18;;;4.50;;
76540;SDS011;65385;55.772;37.658;2023-05-07T22:13:26;8.38;;;4.55;;
76540;SDS011;65385;55.772;37.658;2023-05-07T22:14:26;9.63;;;4.63;;
76540;SDS011;65385;55.772;37.658;2023-05-07T22:15:27;7.82;;;3.92;;
76540;SDS011;65385;55.772;37.658;2023-05-07T22:16:28;11.30;;;4.78;;
76540;SDS011;65385;55.772;37.658;2023-05-07T22:17:29;9.20;;;4.28;;
76540;SDS011;65385;55.772;37.658;2023-05-07T22:18:30;7.57;;;4.25;;
76540;SDS011;65385;55.772;37.658;2023-05-07T22:19:30;8.95;;;4.30;;
76540;SDS011;65385;55.772;37.658;2023-05-07T22:20:31;6.03;;;3.85;;
76540;SDS011;65385;55.772;37.658;2023-05-07T22:21:31;9.90;;;4.38;;
76540;SDS011;65385;55.772;37.658;2023-05-07T22:22:32;7.63;;;4.30;;
76540;SDS011;65385;55.772;37.658;2023-05-07T22:23:47;9.38;;;4.38;;
76540;SDS011;65385;55.772;37.658;2023-05-07T22:24:47;9.15;;;4.28;;
76540;SDS011;65385;55.772;37.658;2023-05-07T22:25:48;8.48;;;4.55;;
76540;SDS011;65385;55.772;37.658;2023-05-07T22:26:49;7.65;;;4.35;;
76540;SDS011;65385;55.772;37.658;2023-05-07T22:27:50;7.78;;;4.47;;
76540;SDS011;65385;55.772;37.658;2023-05-07T22:28:51;7.43;;;4.03;;
76540;SDS011;65385;55.772;37.658;2023-05-07T22:29:52;7.65;;;4.38;;
76540;SDS011;65385;55.772;37.658;2023-05-07T22:30:52;8.55;;;4.10;;
76540;SDS011;65385;55.772;37.658;2023-05-07T22:31:53;10.00;;;4.05;;
76540;SDS011;65385;55.772;37.658;2023-05-07T22:32:54;11.25;;;5.28;;
76540;SDS011;65385;55.772;37.658;2023-05-07T22:33:54;7.88;;;4.18;;
76540;SDS011;65385;55.772;37.658;2023-05-07T22:34:55;9.68;;;4.78;;
76540;SDS011;65385;55.772;37.658;2023-05-07T22:35:56;10.45;;;4.50;;
76540;SDS011;65385;55.772;37.658;2023-05-07T22:36:56;10.30;;;5.15;;
76540;SDS011;65385;55.772;37.658;2023-05-07T22:37:57;9.40;;;4.20;;
76540;SDS011;65385;55.772;37.658;2023-05-07T22:38:57;9.75;;;4.43;;
76540;SDS011;65385;55.772;37.658;2023-05-07T22:39:58;9.45;;;4.68;;
76540;SDS011;65385;55.772;37.658;2023-05-07T22:40:59;8.85;;;4.40;;
76540;SDS011;65385;55.772;37.658;2023-05-07T22:42:00;13.30;;;4.57;;
76540;SDS011;65385;55.772;37.658;2023-05-07T22:43:01;9.32;;;4.38;;
76540;SDS011;65385;55.772;37.658;2023-05-07T22:44:02;7.40;;;4.65;;
76540;SDS011;65385;55.772;37.658;2023-05-07T22:45:03;8.40;;;4.45;;
76540;SDS011;65385;55.772;37.658;2023-05-07T22:46:04;10.10;;;4.22;;
76540;SDS011;65385;55.772;37.658;2023-05-07T22:47:05;10.63;;;4.93;;
76540;SDS011;65385;55.772;37.658;2023-05-07T22:48:05;8.73;;;5.05;;
76540;SDS011;65385;55.772;37.658;2023-05-07T22:49:06;9.30;;;4.40;;
76540;SDS011;65385;55.772;37.658;2023-05-07T22:50:07;9.90;;;5.10;;
76540;SDS011;65385;55.772;37.658;2023-05-07T22:51:13;8.75;;;4.35;;
76540;SDS011;65385;55.772;37.658;2023-05-07T22:52:14;9.93;;;4.70;;
76540;SDS011;65385;55.772;37.658;2023-05-07T22:53:15;8.10;;;4.43;;
76540;SDS011;65385;55.772;37.658;2023-05-07T22:54:16;9.43;;;4.80;;
76540;SDS011;65385;55.772;37.658;2023-05-07T22:55:16;15.07;;;6.22;;
76540;SDS011;65385;55.772;37.658;2023-05-07T22:56:17;9.57;;;4.35;;
76540;SDS011;65385;55.772;37.658;2023-05-07T22:57:18;14.70;;;5.78;;
76540;SDS011;65385;55.772;37.658;2023-05-07T22:58:18;11.40;;;5.05;;
76540;SDS011;65385;55.772;37.658;2023-05-07T22:59:19;9.98;;;5.07;;
76540;SDS011;65385;55.772;37.658;2023-05-07T23:00:20;8.27;;;4.68;;
76540;SDS011;65385;55.772;37.658;2023-05-07T23:01:21;9.40;;;4.35;;
76540;SDS011;65385;55.772;37.658;2023-05-07T23:02:22;10.60;;;4.95;;
76540;SDS011;65385;55.772;37.658;2023-05-07T23:03:23;11.27;;;5.13;;
76540;SDS011;65385;55.772;37.658;2023-05-07T23:04:24;12.15;;;5.47;;
76540;SDS011;65385;55.772;37.658;2023-05-07T23:05:26;12.05;;;5.05;;
76540;SDS011;65385;55.772;37.658;2023-05-07T23:06:26;10.90;;;4.97;;
76540;SDS011;65385;55.772;37.658;2023-05-07T23:07:27;12.20;;;4.65;;
76540;SDS011;65385;55.772;37.658;2023-05-07T23:08:28;13.48;;;5.25;;
76540;SDS011;65385;55.772;37.658;2023-05-07T23:09:28;12.23;;;4.88;;
76540;SDS011;65385;55.772;37.658;2023-05-07T23:10:29;9.77;;;4.97;;
76540;SDS011;65385;55.772;37.658;2023-05-07T23:11:34;9.70;;;4.82;;
76540;SDS011;65385;55.772;37.658;2023-05-07T23:12:35;10.05;;;5.32;;
76540;SDS011;65385;55.772;37.658;2023-05-07T23:13:36;12.77;;;5.35;;
76540;SDS011;65385;55.772;37.658;2023-05-07T23:14:36;10.07;;;5.05;;
76540;SDS011;65385;55.772;37.658;2023-05-07T23:15:37;9.02;;;5.00;;
76540;SDS011;65385;55.772;37.658;2023-05-07T23:16:38;8.88;;;4.40;;
76540;SDS011;65385;55.772;37.658;2023-05-07T23:17:38;7.85;;;3.85;;
76540;SDS011;65385;55.772;37.658;2023-05-07T23:18:39;10.38;;;4.47;;
76540;SDS011;65385;55.772;37.658;2023-05-07T23:19:40;11.05;;;4.50;;
76540;SDS011;65385;55.772;37.658;2023-05-07T23:20:41;12.80;;;5.38;;
76540;SDS011;65385;55.772;37.658;2023-05-07T23:21:43;8.95;;;4.50;;
76540;SDS011;65385;55.772;37.658;2023-05-07T23:22:44;7.22;;;4.07;;
76540;SDS011;65385;55.772;37.658;2023-05-07T23:23:44;8.57;;;4.25;;
76540;SDS011;65385;55.772;37.658;2023-05-07T23:24:46;9.20;;;5.55;;
76540;SDS011;65385;55.772;37.658;2023-05-07T23:25:50;7.47;;;4.35;;
76540;SDS011;65385;55.772;37.658;2023-05-07T23:26:52;11.23;;;5.03;;
76540;SDS011;65385;55.772;37.658;2023-05-07T23:27:52;7.72;;;4.40;;
76540;SDS011;65385;55.772;37.658;2023-05-07T23:28:53;9.27;;;4.35;;
76540;SDS011;65385;55.772;37.658;2023-05-07T23:29:54;7.45;;;4.05;;
76540;SDS011;65385;55.772;37.658;2023-05-07T23:30:55;9.50;;;4.22;;
76540;SDS011;65385;55.772;37.658;2023-05-07T23:31:55;9.82;;;4.65;;
76540;SDS011;65385;55.772;37.658;2023-05-07T23:32:56;9.57;;;4.47;;
76540;SDS011;65385;55.772;37.658;2023-05-07T23:33:57;9.98;;;4.60;;
76540;SDS011;65385;55.772;37.658;2023-05-07T23:34:57;12.23;;;5.68;;
76540;SDS011;65385;55.772;37.658;2023-05-07T23:35:58;12.48;;;4.95;;
76540;SDS011;65385;55.772;37.658;2023-05-07T23:37:03;8.77;;;4.68;;
76540;SDS011;65385;55.772;37.658;2023-05-07T23:38:04;9.15;;;4.63;;
76540;SDS011;65385;55.772;37.658;2023-05-07T23:39:05;12.18;;;4.93;;
76540;SDS011;65385;55.772;37.658;2023-05-07T23:40:05;10.00;;;5.35;;
76540;SDS011;65385;55.772;37.658;2023-05-07T23:41:06;9.55;;;4.78;;
76540;SDS011;65385;55.772;37.658;2023-05-07T23:42:07;10.15;;;5.25;;
76540;SDS011;65385;55.772;37.658;2023-05-07T23:43:09;15.15;;;5.82;;
76540;SDS011;65385;55.772;37.658;2023-05-07T23:44:10;10.52;;;5.10;;
76540;SDS011;65385;55.772;37.658;2023-05-07T23:45:10;9.60;;;4.80;;
76540;SDS011;65385;55.772;37.658;2023-05-07T23:46:11;14.27;;;6.28;;
76540;SDS011;65385;55.772;37.658;2023-05-07T23:47:11;11.18;;;5.13;;
76540;SDS011;65385;55.772;37.658;2023-05-07T23:48:12;8.23;;;4.72;;
76540;SDS011;65385;55.772;37.658;2023-05-07T23:49:13;12.02;;;5.05;;
76540;SDS011;65385;55.772;37.658;2023-05-07T23:50:13;10.95;;;5.55;;
76540;SDS011;65385;55.772;37.658;2023-05-07T23:51:14;7.40;;;5.10;;
76540;SDS011;65385;55.772;37.658;2023-05-07T23:52:16;9.20;;;5.32;;
76540;SDS011;65385;55.772;37.658;2023-05-07T23:53:16;12.27;;;5.10;;
76540;SDS011;65385;55.772;37.658;2023-05-07T23:54:17;13.27;;;5.70;;
76540;SDS011;65385;55.772;37.658;2023-05-07T23:55:18;12.15;;;5.25;;
76540;SDS011;65385;55.772;37.658;2023-05-07T23:56:19;10.38;;;5.78;;
76540;SDS011;65385;55.772;37.658;2023-05-07T23:57:19;12.77;;;6.30;;
76540;SDS011;65385;55.772;37.658;2023-05-07T23:58:20;11.60;;;5.68;;
76540;SDS011;65385;55.772;37.658;2023-05-07T23:59:21;12.30;;;5.65;;
